createdAt,value
2019-02-03T00:01:17.551Z,21.70
2019-02-03T00:03:44.793Z,21.37
2019-02-03T00:06:12.224Z,23.47
2019-02-03T00:08:39.497Z,17.57
2019-02-03T00:11:06.705Z,19.57
2019-02-03T00:13:34.248Z,23.30
2019-02-03T00:16:01.608Z,22.93
2019-02-03T00:18:28.997Z,20.67
2019-02-03T00:20:56.200Z,24.20
2019-02-03T00:23:23.536Z,22.97
2019-02-03T00:25:51.766Z,21.50
2019-02-03T00:28:20.619Z,19.63
2019-02-03T00:30:47.856Z,18.97
2019-02-03T00:33:15.015Z,20.63
2019-02-03T00:35:42.200Z,15.83
2019-02-03T00:38:19.890Z,17.07
2019-02-03T00:40:38.567Z,16.30
2019-02-03T00:43:06.150Z,17.57
2019-02-03T00:45:33.438Z,19.33
2019-02-03T00:48:00.588Z,18.73
2019-02-03T00:50:28.204Z,17.70
2019-02-03T00:52:55.889Z,18.80
2019-02-03T00:55:23.102Z,16.83
2019-02-03T00:57:50.781Z,16.23
2019-02-03T01:00:18.243Z,18.10
2019-02-03T01:02:45.459Z,16.40
2019-02-03T01:05:14.683Z,21.67
2019-02-03T01:07:41.960Z,17.53
2019-02-03T01:10:12.182Z,17.67
2019-02-03T01:12:39.400Z,20.23
2019-02-03T01:15:07.470Z,17.77
2019-02-03T01:17:36.160Z,20.97
2019-02-03T01:20:05.386Z,18.23
2019-02-03T01:22:32.749Z,22.93
2019-02-03T01:24:59.964Z,24.07
2019-02-03T01:27:27.266Z,21.77
2019-02-03T01:29:54.789Z,23.40
2019-02-03T01:32:22.077Z,19.83
2019-02-03T01:34:49.323Z,19.13
2019-02-03T01:37:16.624Z,20.97
2019-02-03T01:39:44.956Z,20.63
2019-02-03T01:42:12.527Z,21.13
2019-02-03T01:44:40.095Z,20.60
2019-02-03T01:47:07.366Z,22.40
2019-02-03T01:49:34.616Z,24.20
2019-02-03T01:52:01.920Z,19.43
2019-02-03T01:54:29.040Z,24.13
2019-02-03T01:56:56.333Z,21.63
2019-02-03T01:59:23.553Z,21.97
2019-02-03T02:01:51.024Z,22.70
2019-02-03T02:04:18.340Z,22.10
2019-02-03T02:06:45.634Z,23.97
2019-02-03T02:09:12.968Z,24.80
2019-02-03T02:11:40.621Z,28.87
2019-02-03T02:14:07.981Z,29.73
2019-02-03T02:16:35.217Z,30.97
2019-02-03T02:19:02.465Z,29.63
2019-02-03T02:21:29.850Z,29.70
2019-02-03T02:23:58.288Z,37.40
2019-02-03T02:26:25.789Z,33.87
2019-02-03T02:28:53.439Z,33.63
2019-02-03T02:31:23.287Z,35.87
2019-02-03T02:33:50.955Z,29.77
2019-02-03T02:36:18.160Z,34.37
2019-02-03T02:38:45.453Z,41.13
2019-02-03T02:41:12.710Z,37.87
2019-02-03T02:43:40.190Z,34.30
2019-02-03T02:46:07.450Z,39.47
2019-02-03T02:48:34.684Z,37.93
2019-02-03T02:51:02.032Z,37.83
2019-02-03T02:53:29.270Z,45.50
2019-02-03T02:55:56.519Z,44.10
2019-02-03T02:58:23.894Z,40.10
2019-02-03T03:00:51.156Z,40.00
2019-02-03T03:03:18.381Z,36.83
2019-02-03T03:05:45.817Z,37.30
2019-02-03T03:08:19.067Z,42.60
2019-02-03T03:10:42.225Z,38.40
2019-02-03T03:13:09.763Z,46.33
2019-02-03T03:15:37.005Z,44.23
2019-02-03T03:18:04.307Z,40.73
2019-02-03T03:20:31.470Z,41.67
2019-02-03T03:22:59.213Z,43.07
2019-02-03T03:25:26.440Z,45.30
2019-02-03T03:27:53.715Z,44.40
2019-02-03T03:30:23.057Z,50.40
2019-02-03T03:32:51.094Z,46.20
2019-02-03T03:35:18.726Z,36.90
2019-02-03T03:37:45.944Z,43.17
2019-02-03T03:40:15.281Z,42.70
2019-02-03T03:42:42.519Z,41.57
2019-02-03T03:45:10.584Z,43.33
2019-02-03T03:47:37.720Z,41.23
2019-02-03T03:50:06.165Z,41.00
2019-02-03T03:52:33.778Z,39.87
2019-02-03T03:55:01.135Z,33.17
2019-02-03T03:57:28.362Z,43.77
2019-02-03T03:59:57.216Z,38.80
2019-02-03T04:02:24.462Z,39.20
2019-02-03T04:04:52.333Z,39.00
2019-02-03T04:07:19.940Z,44.90
2019-02-03T04:09:47.221Z,40.23
2019-02-03T04:12:14.504Z,39.00
2019-02-03T04:14:41.862Z,42.53
2019-02-03T04:17:09.116Z,41.43
2019-02-03T04:19:36.961Z,40.67
2019-02-03T04:22:04.519Z,40.10
2019-02-03T04:24:32.121Z,38.60
2019-02-03T04:27:00.273Z,42.60
2019-02-03T04:29:27.592Z,35.10
2019-02-03T04:31:54.879Z,30.43
2019-02-03T04:34:44.269Z,34.50
2019-02-03T04:37:12.051Z,31.77
2019-02-03T04:39:46.404Z,35.83
2019-02-03T04:42:16.806Z,27.30
2019-02-03T04:44:45.367Z,39.27
2019-02-03T04:47:14.565Z,34.43
2019-02-03T04:49:44.660Z,34.60
2019-02-03T04:52:17.600Z,30.30
2019-02-03T04:54:50.303Z,33.27
2019-02-03T04:57:23.553Z,32.63
2019-02-03T04:59:51.675Z,31.70
2019-02-03T05:02:18.923Z,36.80
2019-02-03T05:04:46.296Z,37.40
2019-02-03T05:07:13.689Z,34.60
2019-02-03T05:09:41.238Z,34.70
2019-02-03T05:12:08.754Z,40.57
2019-02-03T05:14:36.096Z,33.63
2019-02-03T05:17:03.784Z,33.37
2019-02-03T05:19:31.001Z,31.23
2019-02-03T05:21:58.250Z,34.23
2019-02-03T05:24:25.523Z,33.43
2019-02-03T05:26:52.793Z,41.33
2019-02-03T05:29:20.090Z,34.87
2019-02-03T05:31:47.331Z,33.57
2019-02-03T05:34:14.425Z,38.77
2019-02-03T05:36:41.985Z,34.07
2019-02-03T05:39:09.878Z,35.77
2019-02-03T05:41:37.410Z,34.43
2019-02-03T05:44:05.158Z,36.20
2019-02-03T05:46:32.506Z,33.83
2019-02-03T05:49:00.721Z,37.90
2019-02-03T05:51:28.066Z,30.17
2019-02-03T05:53:55.727Z,35.97
2019-02-03T05:56:23.036Z,37.93
2019-02-03T05:58:50.253Z,36.27
2019-02-03T06:01:17.593Z,30.07
2019-02-03T06:03:44.809Z,37.73
2019-02-03T06:06:12.100Z,28.93
2019-02-03T06:08:39.319Z,33.17
2019-02-03T06:11:06.844Z,32.10
2019-02-03T06:13:34.469Z,32.70
2019-02-03T06:16:01.742Z,28.13
2019-02-03T06:18:29.256Z,37.03
2019-02-03T06:20:57.698Z,33.53
2019-02-03T06:23:24.843Z,35.20
2019-02-03T06:25:51.960Z,28.13
2019-02-03T06:28:19.559Z,30.83
2019-02-03T06:31:07.002Z,26.60
2019-02-03T06:33:34.530Z,32.33
2019-02-03T06:36:01.830Z,34.00
2019-02-03T06:38:29.356Z,27.97
2019-02-03T06:40:56.654Z,35.33
2019-02-03T06:43:24.601Z,32.47
2019-02-03T06:45:57.889Z,30.43
2019-02-03T06:48:25.290Z,29.10
2019-02-03T06:50:52.453Z,33.90
2019-02-03T06:53:19.719Z,31.40
2019-02-03T06:55:46.978Z,29.40
2019-02-03T06:58:14.199Z,34.13
2019-02-03T07:00:41.489Z,27.87
2019-02-03T07:03:08.964Z,28.00
2019-02-03T07:05:36.418Z,28.80
2019-02-03T07:08:03.696Z,30.10
2019-02-03T07:10:31.353Z,27.53
2019-02-03T07:13:00.292Z,24.40
2019-02-03T07:15:27.664Z,37.03
2019-02-03T07:17:54.801Z,28.87
2019-02-03T07:20:22.053Z,30.60
2019-02-03T07:22:49.314Z,26.80
2019-02-03T07:25:16.845Z,31.57
2019-02-03T07:27:44.109Z,29.87
2019-02-03T07:30:12.604Z,26.73
2019-02-03T07:32:40.259Z,22.40
2019-02-03T07:35:08.803Z,23.63
2019-02-03T07:37:37.017Z,29.70
2019-02-03T07:40:12.099Z,27.63
2019-02-03T07:42:33.480Z,27.80
2019-02-03T07:45:00.703Z,28.40
2019-02-03T07:47:27.955Z,27.20
2019-02-03T07:49:55.182Z,31.10
2019-02-03T07:52:22.397Z,29.70
2019-02-03T07:54:49.919Z,26.07
2019-02-03T07:57:17.555Z,29.07
2019-02-03T07:59:44.785Z,28.27
2019-02-03T08:02:12.071Z,32.10
2019-02-03T08:04:39.551Z,29.60
2019-02-03T08:07:07.205Z,35.97
2019-02-03T08:09:34.428Z,24.93
2019-02-03T08:12:01.698Z,28.47
2019-02-03T08:14:28.965Z,32.17
2019-02-03T08:16:56.559Z,25.67
2019-02-03T08:19:24.691Z,26.70
2019-02-03T08:21:51.982Z,28.33
2019-02-03T08:24:19.417Z,27.87
2019-02-03T08:26:46.662Z,28.10
2019-02-03T08:29:14.865Z,30.00
2019-02-03T08:31:42.767Z,25.70
2019-02-03T08:34:10.049Z,25.17
2019-02-03T08:36:38.209Z,26.97
2019-02-03T08:39:07.657Z,28.07
2019-02-03T08:41:35.577Z,35.17
2019-02-03T08:44:06.173Z,27.53
2019-02-03T08:46:34.246Z,28.07
2019-02-03T08:49:04.808Z,29.57
2019-02-03T08:51:32.596Z,26.87
2019-02-03T08:53:59.954Z,30.07
2019-02-03T08:56:34.883Z,26.97
2019-02-03T08:59:04.463Z,34.67
2019-02-03T09:01:34.882Z,33.90
2019-02-03T09:04:02.572Z,31.10
2019-02-03T09:06:34.633Z,31.70
2019-02-03T09:09:04.290Z,35.03
2019-02-03T09:11:36.209Z,26.17
2019-02-03T09:14:04.091Z,31.43
2019-02-03T09:16:31.431Z,34.37
2019-02-03T09:18:58.696Z,26.73
2019-02-03T09:21:27.086Z,30.47
2019-02-03T09:23:54.766Z,31.70
2019-02-03T09:26:22.026Z,31.40
2019-02-03T09:28:49.158Z,29.53
2019-02-03T09:31:16.813Z,33.07
2019-02-03T09:33:44.029Z,35.00
2019-02-03T09:36:11.843Z,29.87
2019-02-03T09:38:39.197Z,32.03
2019-02-03T09:41:06.613Z,26.90
2019-02-03T09:43:33.801Z,30.20
2019-02-03T09:46:01.099Z,28.10
2019-02-03T09:48:28.448Z,33.37
2019-02-03T09:50:55.626Z,31.73
2019-02-03T09:53:22.900Z,33.23
2019-02-03T09:55:50.993Z,28.93
2019-02-03T09:58:18.217Z,26.70
2019-02-03T10:00:46.289Z,28.73
2019-02-03T10:03:13.910Z,26.90
2019-02-03T10:05:41.072Z,29.57
2019-02-03T10:08:08.391Z,30.80
2019-02-03T10:10:37.557Z,30.17
2019-02-03T10:13:22.850Z,30.10
2019-02-03T10:15:50.187Z,32.00
2019-02-03T10:18:17.803Z,29.57
2019-02-03T10:20:45.304Z,29.97
2019-02-03T10:23:13.207Z,27.40
2019-02-03T10:25:40.404Z,25.50
2019-02-03T10:28:07.916Z,27.83
2019-02-03T10:30:35.298Z,24.83
2019-02-03T10:33:02.775Z,27.43
2019-02-03T10:35:30.388Z,32.13
2019-02-03T10:38:03.686Z,23.20
2019-02-03T10:40:33.345Z,27.40
2019-02-03T10:43:01.377Z,26.50
2019-02-03T10:45:28.898Z,28.73
2019-02-03T10:47:56.529Z,26.23
2019-02-03T10:50:26.278Z,27.90
2019-02-03T10:52:54.003Z,26.80
2019-02-03T10:55:21.350Z,30.20
2019-02-03T10:57:48.819Z,27.30
2019-02-03T11:00:19.033Z,30.47
2019-02-03T11:02:46.299Z,25.93
2019-02-03T11:05:15.933Z,29.50
2019-02-03T11:07:45.355Z,25.73
2019-02-03T11:10:15.856Z,26.83
2019-02-03T11:12:42.940Z,26.27
2019-02-03T11:15:11.455Z,29.47
2019-02-03T11:17:39.816Z,27.00
2019-02-03T11:20:11.061Z,24.00
2019-02-03T11:22:38.701Z,23.20
2019-02-03T11:25:07.087Z,22.37
2019-02-03T11:27:34.971Z,24.83
2019-02-03T11:30:02.815Z,27.17
2019-02-03T11:32:30.105Z,25.30
2019-02-03T11:34:57.294Z,31.43
2019-02-03T11:37:24.441Z,27.37
2019-02-03T11:39:51.602Z,28.00
2019-02-03T11:42:19.108Z,33.60
2019-02-03T11:44:46.603Z,27.30
2019-02-03T11:47:13.833Z,26.83
2019-02-03T11:49:41.155Z,27.70
2019-02-03T11:52:08.408Z,25.87
2019-02-03T11:54:35.756Z,24.70
2019-02-03T11:57:03.119Z,28.87
2019-02-03T11:59:30.481Z,30.00
2019-02-03T12:01:58.253Z,25.30
2019-02-03T12:04:25.421Z,25.40
2019-02-03T12:06:52.617Z,23.63
2019-02-03T12:09:20.344Z,21.50
2019-02-03T12:12:00.385Z,25.03
2019-02-03T12:14:17.349Z,22.30
2019-02-03T12:16:45.449Z,25.30
2019-02-03T12:19:13.351Z,23.97
2019-02-03T12:21:40.696Z,25.77
2019-02-03T12:24:07.928Z,29.13
2019-02-03T12:26:36.625Z,22.13
2019-02-03T12:29:06.595Z,23.07
2019-02-03T12:31:34.093Z,28.53
2019-02-03T12:34:01.621Z,23.83
2019-02-03T12:36:29.145Z,23.03
2019-02-03T12:38:56.668Z,25.63
2019-02-03T12:41:24.119Z,23.10
2019-02-03T12:43:52.176Z,23.03
2019-02-03T12:46:19.896Z,22.63
2019-02-03T12:48:47.223Z,23.17
2019-02-03T12:51:14.836Z,24.80
2019-02-03T12:53:42.419Z,22.17
2019-02-03T12:56:09.800Z,23.10
2019-02-03T12:58:36.958Z,29.90
2019-02-03T13:01:05.172Z,29.10
2019-02-03T13:03:32.654Z,23.67
2019-02-03T13:05:59.706Z,21.53
2019-02-03T13:08:27.375Z,22.93
2019-02-03T13:10:54.732Z,24.67
2019-02-03T13:13:25.482Z,24.77
2019-02-03T13:15:54.137Z,19.13
2019-02-03T13:18:21.760Z,22.80
2019-02-03T13:20:49.641Z,23.67
2019-02-03T13:23:17.053Z,17.93
2019-02-03T13:25:45.331Z,18.80
2019-02-03T13:28:13.244Z,17.57
2019-02-03T13:30:48.038Z,17.77
2019-02-03T13:33:15.737Z,15.30
2019-02-03T13:35:43.010Z,14.07
2019-02-03T13:38:10.614Z,13.50
2019-02-03T13:40:38.259Z,13.23
2019-02-03T13:43:06.079Z,18.10
2019-02-03T13:45:34.369Z,14.10
2019-02-03T13:48:01.917Z,12.57
2019-02-03T13:50:30.418Z,14.43
2019-02-03T13:53:00.777Z,16.10
2019-02-03T13:55:30.005Z,13.00
2019-02-03T13:57:58.193Z,12.87
2019-02-03T14:00:29.131Z,13.77
2019-02-03T14:02:56.307Z,13.30
2019-02-03T14:05:23.620Z,13.50
2019-02-03T14:07:51.144Z,9.27
2019-02-03T14:10:32.466Z,11.60
2019-02-03T14:13:00.483Z,9.43
2019-02-03T14:15:28.769Z,9.93
2019-02-03T14:17:56.142Z,12.17
2019-02-03T14:20:25.179Z,7.93
2019-02-03T14:22:52.899Z,8.93
2019-02-03T14:25:26.961Z,10.43
2019-02-03T14:27:55.403Z,11.93
2019-02-03T14:30:39.274Z,19.23
2019-02-03T14:32:58.510Z,10.20
2019-02-03T14:35:26.393Z,8.87
2019-02-03T14:37:54.220Z,8.93
2019-02-03T14:40:22.578Z,7.57
2019-02-03T14:43:00.855Z,8.10
2019-02-03T14:45:26.099Z,10.50
2019-02-03T14:47:54.638Z,12.20
2019-02-03T14:50:23.239Z,9.30
2019-02-03T14:52:52.954Z,7.43
2019-02-03T14:55:25.239Z,8.10
2019-02-03T14:57:53.228Z,8.67
2019-02-03T15:00:26.247Z,8.00
2019-02-03T15:02:54.081Z,7.80
2019-02-03T15:05:21.923Z,7.87
2019-02-03T15:07:49.483Z,7.10
2019-02-03T15:10:16.866Z,7.30
2019-02-03T15:12:44.595Z,6.23
2019-02-03T15:15:13.589Z,8.37
2019-02-03T15:17:41.284Z,6.17
2019-02-03T15:20:11.011Z,6.93
2019-02-03T15:22:38.441Z,7.83
2019-02-03T15:25:06.744Z,6.10
2019-02-03T15:27:34.538Z,4.40
2019-02-03T15:30:02.142Z,7.60
2019-02-03T15:32:29.940Z,8.07
2019-02-03T15:34:57.546Z,10.30
2019-02-03T15:37:24.913Z,6.43
2019-02-03T15:39:55.064Z,8.17
2019-02-03T15:42:21.878Z,10.90
2019-02-03T15:44:49.338Z,7.53
2019-02-03T15:47:16.965Z,6.00
2019-02-03T15:49:44.170Z,6.77
2019-02-03T15:52:11.808Z,4.67
2019-02-03T15:54:39.658Z,4.30
2019-02-03T15:57:07.190Z,4.27
2019-02-03T15:59:34.465Z,3.90
2019-02-03T16:02:02.744Z,5.87
2019-02-03T16:04:29.946Z,5.20
2019-02-03T16:06:57.772Z,5.43
2019-02-03T16:09:25.608Z,4.47
2019-02-03T16:11:53.450Z,3.70
2019-02-03T16:14:20.757Z,4.50
2019-02-03T16:16:48.402Z,3.70
2019-02-03T16:19:15.676Z,3.80
2019-02-03T16:21:43.166Z,2.40
2019-02-03T16:24:10.669Z,3.70
2019-02-03T16:26:38.616Z,2.87
2019-02-03T16:29:07.356Z,4.07
2019-02-03T16:31:35.026Z,3.03
2019-02-03T16:34:02.880Z,4.17
2019-02-03T16:36:30.541Z,3.47
2019-02-03T16:38:58.868Z,4.27
2019-02-03T16:41:25.956Z,3.97
2019-02-03T16:43:53.306Z,3.40
2019-02-03T16:46:20.604Z,2.30
2019-02-03T16:48:48.189Z,3.50
2019-02-03T16:51:15.470Z,3.03
2019-02-03T16:53:45.970Z,4.07
2019-02-03T16:56:13.414Z,3.77
2019-02-03T16:58:40.866Z,2.63
2019-02-03T17:01:08.488Z,2.10
2019-02-03T17:03:35.663Z,3.20
2019-02-03T17:06:03.014Z,6.33
2019-02-03T17:08:30.364Z,4.67
2019-02-03T17:10:58.166Z,2.20
2019-02-03T17:13:25.336Z,4.90
2019-02-03T17:15:57.720Z,3.10
2019-02-03T17:18:24.895Z,2.87
2019-02-03T17:21:01.506Z,4.10
2019-02-03T17:23:21.432Z,3.33
2019-02-03T17:25:51.607Z,3.97
2019-02-03T17:28:18.763Z,4.97
2019-02-03T17:30:46.375Z,5.20
2019-02-03T17:33:13.852Z,6.17
2019-02-03T17:35:53.444Z,7.70
2019-02-03T17:38:10.263Z,5.10
2019-02-03T17:40:37.538Z,2.60
2019-02-03T17:43:04.920Z,5.50
2019-02-03T17:45:32.249Z,2.70
2019-02-03T17:47:59.385Z,4.33
2019-02-03T17:50:26.651Z,3.10
2019-02-03T17:52:54.259Z,3.20
2019-02-03T17:55:22.062Z,3.97
2019-02-03T17:57:49.237Z,2.90
2019-02-03T18:00:18.824Z,3.83
2019-02-03T18:02:46.989Z,4.13
2019-02-03T18:05:14.575Z,3.50
2019-02-03T18:07:42.020Z,3.93
2019-02-03T18:10:16.494Z,10.73
2019-02-03T18:12:43.721Z,3.70
2019-02-03T18:15:10.914Z,8.10
2019-02-03T18:17:38.063Z,5.50
2019-02-03T18:20:07.949Z,2.90
2019-02-03T18:22:36.212Z,9.70
2019-02-03T18:25:04.256Z,6.00
2019-02-03T18:27:31.487Z,4.87
2019-02-03T18:29:59.004Z,4.70
2019-02-03T18:32:26.228Z,5.57
2019-02-03T18:34:53.544Z,6.10
2019-02-03T18:37:20.901Z,4.30
2019-02-03T18:39:48.079Z,7.23
2019-02-03T18:42:16.422Z,9.50
2019-02-03T18:44:45.251Z,6.10
2019-02-03T18:47:12.655Z,4.37
2019-02-03T18:49:40.495Z,10.30
2019-02-03T18:52:07.629Z,9.77
2019-02-03T18:54:35.366Z,4.37
2019-02-03T18:57:02.648Z,5.57
2019-02-03T18:59:31.247Z,5.50
2019-02-03T19:01:59.918Z,13.60
2019-02-03T19:04:27.488Z,8.10
2019-02-03T19:06:54.664Z,7.30
2019-02-03T19:09:21.968Z,7.73
2019-02-03T19:11:49.337Z,6.13
2019-02-03T19:14:18.234Z,4.77
2019-02-03T19:16:46.045Z,5.43
2019-02-03T19:19:13.355Z,9.70
2019-02-03T19:21:40.691Z,8.60
2019-02-03T19:24:08.083Z,7.90
2019-02-03T19:26:35.756Z,9.90
2019-02-03T19:29:03.195Z,8.47
2019-02-03T19:31:30.562Z,6.93
2019-02-03T19:33:59.071Z,5.93
2019-02-03T19:36:26.370Z,6.03
2019-02-03T19:38:53.934Z,4.87
2019-02-03T19:41:21.324Z,4.67
2019-02-03T19:43:49.070Z,5.53
2019-02-03T19:46:17.384Z,8.00
2019-02-03T19:48:46.773Z,10.80
2019-02-03T19:51:14.370Z,4.10
2019-02-03T19:53:42.323Z,5.53
2019-02-03T19:56:09.892Z,5.03
2019-02-03T20:01:09.752Z,8.53
2019-02-03T20:03:37.236Z,10.17
2019-02-03T20:06:04.543Z,8.37
2019-02-03T20:08:31.792Z,5.93
2019-02-03T20:10:59.158Z,6.20
2019-02-03T20:13:26.909Z,7.87
2019-02-03T20:15:54.297Z,5.73
2019-02-03T20:18:22.449Z,6.63
2019-02-03T20:20:50.030Z,6.40
2019-02-03T20:23:17.662Z,6.73
2019-02-03T20:25:44.820Z,5.83
2019-02-03T20:28:12.069Z,8.80
2019-02-03T20:30:39.683Z,10.90
2019-02-03T20:33:07.265Z,7.83
2019-02-03T20:35:34.559Z,5.63
2019-02-03T20:38:02.067Z,5.90
2019-02-03T20:40:31.394Z,13.83
2019-02-03T20:42:58.951Z,5.63
2019-02-03T20:45:26.367Z,6.03
2019-02-03T20:47:53.488Z,9.53
2019-02-03T20:50:20.980Z,4.67
2019-02-03T20:52:48.634Z,7.93
2019-02-03T20:55:16.456Z,5.53
2019-02-03T20:57:43.607Z,8.73
2019-02-03T21:00:14.432Z,6.97
2019-02-03T21:02:41.552Z,8.53
2019-02-03T21:05:08.988Z,7.23
2019-02-03T21:07:36.030Z,7.30
2019-02-03T21:10:05.142Z,5.63
2019-02-03T21:12:32.333Z,8.03
2019-02-03T21:14:59.758Z,5.53
2019-02-03T21:17:27.002Z,9.50
2019-02-03T21:19:54.520Z,7.40
2019-02-03T21:22:21.814Z,12.50
2019-02-03T21:24:49.068Z,8.60
2019-02-03T21:27:16.880Z,12.50
2019-02-03T21:29:44.078Z,6.73
2019-02-03T21:32:11.372Z,8.43
2019-02-03T21:34:38.549Z,8.50
2019-02-03T21:37:05.724Z,10.00
2019-02-03T21:39:32.982Z,8.90
2019-02-03T21:42:00.126Z,10.23
2019-02-03T21:44:27.503Z,9.00
2019-02-03T21:46:55.013Z,7.53
2019-02-03T21:49:22.214Z,10.23
2019-02-03T21:51:49.385Z,12.20
2019-02-03T21:54:16.609Z,8.47
2019-02-03T21:56:44.101Z,12.47
2019-02-03T21:59:11.288Z,10.73
2019-02-03T22:01:38.584Z,9.40
2019-02-03T22:04:05.742Z,10.77
2019-02-03T22:06:32.966Z,9.40
2019-02-03T22:09:00.344Z,11.80
2019-02-03T22:11:27.626Z,8.90
2019-02-03T22:13:54.826Z,9.87
2019-02-03T22:16:22.313Z,10.30
2019-02-03T22:18:49.463Z,12.97
2019-02-03T22:21:16.777Z,12.43
2019-02-03T22:23:43.881Z,8.70
2019-02-03T22:26:10.934Z,14.73
2019-02-03T22:28:38.399Z,16.20
2019-02-03T22:31:05.519Z,10.80
2019-02-03T22:33:32.976Z,16.10
2019-02-03T22:36:00.153Z,13.90
2019-02-03T22:38:27.462Z,12.67
2019-02-03T22:40:54.609Z,15.20
2019-02-03T22:43:21.915Z,15.50
2019-02-03T22:45:49.116Z,13.00
2019-02-03T22:48:16.325Z,9.60
2019-02-03T22:50:43.424Z,13.43
2019-02-03T22:53:10.645Z,11.30
2019-02-03T22:55:37.859Z,11.50
2019-02-03T22:58:05.062Z,10.80
2019-02-03T23:01:08.908Z,12.73
2019-02-03T23:03:41.916Z,11.20
2019-02-03T23:06:09.206Z,13.30
2019-02-03T23:08:36.420Z,9.40
2019-02-03T23:11:04.399Z,10.40
2019-02-03T23:13:31.872Z,13.47
2019-02-03T23:15:59.043Z,18.77
2019-02-03T23:18:26.255Z,13.37
2019-02-03T23:20:53.361Z,16.60
2019-02-03T23:23:20.758Z,9.10
2019-02-03T23:25:47.917Z,15.30
2019-02-03T23:28:15.407Z,9.40
2019-02-03T23:30:42.847Z,13.13
2019-02-03T23:33:10.471Z,10.47
2019-02-03T23:35:37.603Z,12.30
2019-02-03T23:38:04.909Z,11.43
2019-02-03T23:40:32.071Z,15.20
2019-02-03T23:42:59.274Z,10.80
2019-02-03T23:45:27.401Z,9.23
2019-02-03T23:47:54.453Z,11.40
2019-02-03T23:50:21.622Z,11.73
2019-02-03T23:52:48.937Z,10.27
2019-02-03T23:55:16.135Z,16.40
2019-02-03T23:57:43.521Z,15.23
